Portada
METAR-TAF:

METAR-TAF

Aeroports :

Shahrekord, Iran

latitud: 32-20N, longitud: 050-51E, altitud: 2078 m

Observació

L'informe es va fer fa 1 hora i 8 minuts, a les 16:00 UTC
Vent 8 kt del Est
Temperatura 27°C
Humitat 15%
Pressió 1017 hPa
Visibilitat 10 km o més
Escasses núvols a una alçada de 4000 ft

METAR: OIFS 101600Z 08008KT 9999 FEW040 27/M02 Q1017

Hora: 21:38 (17:08 UTC)


TAF: manca

Observacions i pronòstics meteorològics de més de 4000 aeroports (METAR i TAF).

Les estacions disponibles són els punts grocs i vermells al mapa.

Posi el ratolí al punt desitjat per veure el nom de l'estació.

Feu clic per veure les observacions i els pronòstics meteorològics.

Per canviar el mapa: feu clic els botons verds amb una creu de color negre per apropar; al botó verd amb un guió per allunyar la imatge; o en les fletxes verdes per a mapes adjacents.


METAR-TAF: